Time;durP1;ratioP1;P1;durP2;ratioP2;P2;SDS_P1;SDS_P2;PMS_P1;PMS_P2;Temp;Humidity;BMP_temperature;BMP_pressure;BME280_temperature;BME280_humidity;BME280_pressure;Samples;Min_cycle;Max_cycle;Signal;HPM_P1;HPM_P2
2022/02/11 00:07:25;;;;;;;15.95;9.32;;;;;;;;;;5030269;28;20047;-36
2022/02/11 00:09:51;;;;;;;17.00;9.02;;;;;;;;;;5030959;28;20033;-36
2022/02/11 00:12:17;;;;;;;17.70;8.27;;;;;;;;;;5028864;28;20018;-36
2022/02/11 00:15:03;;;;;;;18.95;8.30;;;;;;;;;;5029814;28;20128;-37
2022/02/11 00:17:30;;;;;;;15.20;8.70;;;;;;;;;;5030340;28;20025;-35
2022/02/11 00:19:56;;;;;;;14.98;8.55;;;;;;;;;;5030305;28;20033;-36
2022/02/11 00:22:22;;;;;;;17.33;9.27;;;;;;;;;;5030476;28;20022;-38
2022/02/11 00:24:51;;;;;;;16.30;8.05;;;;;;;;;;5030071;28;20053;-36
2022/02/11 00:35:10;;;;;;;14.82;7.72;;;;;;;;;;5031475;28;20034;-37
2022/02/11 00:37:39;;;;;;;13.90;7.80;;;;;;;;;;5030912;28;20487;-36
2022/02/11 00:40:15;;;;;;;16.90;8.40;;;;;;;;;;5030184;28;20044;-36
2022/02/11 00:43:34;;;;;;;15.82;7.65;;;;;;;;;;5030958;28;20072;-36
2022/02/11 01:04:03;;;;;;;14.63;7.00;;;;;;;;;;5029856;28;20036;-35
2022/02/11 01:06:30;;;;;;;14.50;6.82;;;;;;;;;;5029458;28;20071;-34
2022/02/11 01:08:56;;;;;;;15.80;6.78;;;;;;;;;;5029534;28;20413;-36
2022/02/11 01:11:29;;;;;;;12.02;6.25;;;;;;;;;;5023001;28;20061;-36
2022/02/11 01:13:55;;;;;;;12.57;6.43;;;;;;;;;;5021774;28;20534;-37
2022/02/11 01:16:28;;;;;;;10.88;6.18;;;;;;;;;;5029316;28;20036;-37
2022/02/11 01:19:07;;;;;;;14.18;6.38;;;;;;;;;;5029278;28;20105;-36
2022/02/11 01:21:42;;;;;;;10.45;6.00;;;;;;;;;;5029301;28;20414;-36
2022/02/11 01:24:26;;;;;;;12.45;5.80;;;;;;;;;;5028991;28;20056;-35
2022/02/11 01:32:29;;;;;;;11.40;6.47;;;;;;;;;;5029253;28;20032;-36
2022/02/11 01:35:08;;;;;;;12.15;5.95;;;;;;;;;;5029007;28;20021;-35
2022/02/11 01:37:51;;;;;;;11.00;5.63;;;;;;;;;;5009426;28;20392;-35
2022/02/11 01:40:47;;;;;;;11.73;6.15;;;;;;;;;;5025311;28;20717;-35
2022/02/11 01:51:32;;;;;;;12.00;5.60;;;;;;;;;;5028751;28;20033;-35
2022/02/11 01:55:15;;;;;;;11.77;6.03;;;;;;;;;;5029071;28;20063;-36
2022/02/11 01:57:11;;;;;;;10.75;6.15;;;;;;;;;;5012435;28;20042;-35
2022/02/11 02:00:12;;;;;;;8.52;4.88;;;;;;;;;;5028614;28;20017;-35
2022/02/11 02:14:01;;;;;;;11.32;4.97;;;;;;;;;;5028989;28;20059;-36
2022/02/11 02:27:10;;;;;;;9.43;4.53;;;;;;;;;;5024491;28;20057;-36
2022/02/11 02:32:33;;;;;;;12.15;5.00;;;;;;;;;;5027818;28;20126;-37
2022/02/11 02:56:56;;;;;;;9.23;4.72;;;;;;;;;;5015085;28;20040;-35
2022/02/11 03:00:02;;;;;;;9.75;4.80;;;;;;;;;;5028515;28;20026;-35
2022/02/11 03:35:28;;;;;;;9.30;4.28;;;;;;;;;;5019915;28;20044;-36
2022/02/11 03:49:03;;;;;;;7.95;3.58;;;;;;;;;;5031077;28;20040;-36
2022/02/11 04:25:29;;;;;;;7.32;2.83;;;;;;;;;;5030086;28;21065;-35
2022/02/11 04:52:57;;;;;;;8.45;3.67;;;;;;;;;;5029845;28;20544;-36
2022/02/11 05:00:03;;;;;;;8.48;3.30;;;;;;;;;;5029611;28;20039;-36
2022/02/11 05:02:35;;;;;;;8.20;3.53;;;;;;;;;;5029668;28;20021;-36
2022/02/11 05:05:04;;;;;;;6.47;3.20;;;;;;;;;;5029135;28;20558;-35
2022/02/11 05:07:31;;;;;;;6.88;2.83;;;;;;;;;;5028061;28;20484;-36
2022/02/11 05:09:57;;;;;;;8.45;3.22;;;;;;;;;;5017465;28;20056;-36
2022/02/11 05:12:28;;;;;;;9.07;2.83;;;;;;;;;;5026036;28;20026;-46
2022/02/11 05:15:08;;;;;;;11.43;3.33;;;;;;;;;;5010426;28;20030;-37
2022/02/11 05:17:41;;;;;;;7.82;2.97;;;;;;;;;;5026265;28;20045;-36
2022/02/11 05:20:09;;;;;;;8.18;3.60;;;;;;;;;;5029750;28;20033;-37
2022/02/11 05:22:36;;;;;;;11.80;3.65;;;;;;;;;;5029092;28;20052;-38
2022/02/11 05:25:03;;;;;;;7.63;3.28;;;;;;;;;;5028612;28;20119;-36
2022/02/11 05:27:29;;;;;;;9.18;3.25;;;;;;;;;;5028881;28;20103;-35
2022/02/11 05:29:55;;;;;;;10.95;3.20;;;;;;;;;;5028968;28;20029;-35
2022/02/11 05:32:21;;;;;;;25.92;3.95;;;;;;;;;;5029077;28;20032;-36
2022/02/11 05:34:47;;;;;;;11.10;3.33;;;;;;;;;;5029328;28;20140;-36
2022/02/11 05:37:15;;;;;;;10.95;2.92;;;;;;;;;;5028914;28;20026;-36
2022/02/11 05:39:41;;;;;;;10.35;2.83;;;;;;;;;;5017820;28;20036;-35
2022/02/11 05:42:07;;;;;;;11.77;3.17;;;;;;;;;;5014971;28;20022;-36
2022/02/11 05:44:33;;;;;;;10.45;3.17;;;;;;;;;;5029071;28;20030;-35
2022/02/11 05:47:00;;;;;;;7.72;2.50;;;;;;;;;;5028472;28;20017;-36
2022/02/11 05:49:27;;;;;;;12.15;2.63;;;;;;;;;;5029402;28;20032;-37
2022/02/11 05:51:54;;;;;;;7.43;2.83;;;;;;;;;;5028497;28;20021;-36
2022/02/11 05:54:20;;;;;;;10.98;2.80;;;;;;;;;;5018298;28;20095;-35
2022/02/11 05:56:46;;;;;;;8.88;2.53;;;;;;;;;;5008686;28;20105;-37
2022/02/11 05:59:12;;;;;;;11.23;3.38;;;;;;;;;;5027049;28;20527;-36
2022/02/11 06:01:38;;;;;;;11.07;2.78;;;;;;;;;;5029032;28;20132;-38
2022/02/11 06:04:04;;;;;;;11.20;2.58;;;;;;;;;;5028707;28;20155;-36
2022/02/11 06:06:30;;;;;;;7.43;2.95;;;;;;;;;;5028538;28;20033;-36
2022/02/11 06:08:56;;;;;;;12.65;2.83;;;;;;;;;;5027578;28;20040;-36
2022/02/11 06:11:22;;;;;;;21.40;3.13;;;;;;;;;;5028720;28;20058;-36
2022/02/11 06:13:48;;;;;;;12.35;3.10;;;;;;;;;;5027910;28;20075;-37
2022/02/11 06:16:14;;;;;;;16.17;3.03;;;;;;;;;;5029058;28;20033;-37
2022/02/11 06:18:40;;;;;;;9.50;3.00;;;;;;;;;;5028657;28;20025;-37
2022/02/11 06:21:06;;;;;;;12.77;2.97;;;;;;;;;;5028590;28;20034;-37
2022/02/11 06:23:32;;;;;;;10.65;2.50;;;;;;;;;;5026035;28;20038;-36
2022/02/11 06:25:58;;;;;;;12.93;2.55;;;;;;;;;;5028306;28;20893;-37
2022/02/11 06:28:25;;;;;;;9.95;2.55;;;;;;;;;;5028352;28;20049;-36
2022/02/11 06:30:51;;;;;;;8.60;2.83;;;;;;;;;;5028283;28;20025;-36
2022/02/11 06:33:18;;;;;;;9.18;2.38;;;;;;;;;;5028275;28;20036;-34
2022/02/11 06:35:45;;;;;;;12.02;2.80;;;;;;;;;;5028089;28;20705;-37
2022/02/11 06:38:11;;;;;;;13.82;2.60;;;;;;;;;;5027243;28;20025;-34
2022/02/11 06:40:37;;;;;;;10.98;2.50;;;;;;;;;;5027794;28;20018;-34
2022/02/11 06:43:04;;;;;;;10.80;2.20;;;;;;;;;;5028199;28;20041;-35
2022/02/11 06:45:31;;;;;;;7.63;2.40;;;;;;;;;;5027562;28;20026;-35
2022/02/11 06:47:57;;;;;;;11.93;2.75;;;;;;;;;;5028262;28;20033;-35
2022/02/11 06:50:23;;;;;;;9.93;2.50;;;;;;;;;;5028343;28;20092;-35
2022/02/11 06:52:50;;;;;;;11.50;2.45;;;;;;;;;;5026187;28;20673;-35
2022/02/11 06:55:16;;;;;;;7.07;2.33;;;;;;;;;;5019602;28;20021;-35
2022/02/11 06:57:42;;;;;;;16.45;2.50;;;;;;;;;;5028276;28;20152;-36
2022/02/11 07:00:09;;;;;;;9.30;2.63;;;;;;;;;;5027694;28;20491;-36
2022/02/11 07:02:35;;;;;;;7.22;2.70;;;;;;;;;;5028678;28;20028;-35
2022/02/11 07:05:02;;;;;;;7.72;2.47;;;;;;;;;;5027427;28;20033;-36
2022/02/11 07:07:29;;;;;;;9.80;2.65;;;;;;;;;;5027657;28;20052;-37
2022/02/11 07:09:55;;;;;;;7.13;1.88;;;;;;;;;;5029081;28;20590;-39
2022/02/11 07:12:22;;;;;;;7.28;2.20;;;;;;;;;;5031849;28;20399;-35
2022/02/11 07:14:48;;;;;;;12.13;2.40;;;;;;;;;;5032291;28;20431;-36
2022/02/11 07:17:14;;;;;;;11.10;2.92;;;;;;;;;;5031581;28;20535;-36
2022/02/11 07:19:41;;;;;;;8.40;1.77;;;;;;;;;;5031614;28;20056;-36
2022/02/11 07:22:07;;;;;;;7.15;2.00;;;;;;;;;;5031423;28;20099;-36
2022/02/11 07:24:33;;;;;;;8.32;2.47;;;;;;;;;;5031199;28;20116;-36
2022/02/11 07:26:59;;;;;;;9.27;2.75;;;;;;;;;;5030571;28;20053;-36
2022/02/11 07:29:25;;;;;;;8.18;2.42;;;;;;;;;;5031603;28;20395;-36
2022/02/11 07:31:51;;;;;;;10.55;2.00;;;;;;;;;;5031143;28;20018;-35
2022/02/11 07:34:17;;;;;;;9.43;2.60;;;;;;;;;;5031468;28;20018;-35
2022/02/11 07:36:44;;;;;;;10.10;2.15;;;;;;;;;;5031127;28;20025;-36
2022/02/11 07:39:10;;;;;;;9.20;2.45;;;;;;;;;;5030553;28;20075;-36
2022/02/11 07:41:36;;;;;;;8.32;2.13;;;;;;;;;;5030463;28;20029;-35
2022/02/11 07:44:02;;;;;;;12.27;2.55;;;;;;;;;;5031132;28;20025;-35
2022/02/11 07:46:30;;;;;;;10.70;2.45;;;;;;;;;;5031171;28;20544;-35
2022/02/11 07:48:56;;;;;;;15.30;2.72;;;;;;;;;;5031189;28;20125;-36
2022/02/11 07:51:22;;;;;;;11.60;2.65;;;;;;;;;;5030832;28;20033;-35
2022/02/11 07:53:48;;;;;;;11.07;3.42;;;;;;;;;;5026337;28;20037;-36
2022/02/11 07:56:14;;;;;;;15.95;2.83;;;;;;;;;;5030751;28;20551;-36
2022/02/11 07:58:42;;;;;;;14.10;2.17;;;;;;;;;;5031087;28;20117;-37
2022/02/11 08:01:09;;;;;;;12.90;2.70;;;;;;;;;;5030748;28;20340;-36
2022/02/11 08:03:36;;;;;;;11.50;3.20;;;;;;;;;;5024448;28;20108;-35
2022/02/11 08:06:02;;;;;;;14.00;2.70;;;;;;;;;;5013952;28;20096;-35
2022/02/11 08:08:31;;;;;;;19.90;3.78;;;;;;;;;;5029009;28;20128;-35
2022/02/11 08:10:57;;;;;;;10.63;1.98;;;;;;;;;;5030481;28;20029;-35
2022/02/11 08:13:23;;;;;;;20.15;2.72;;;;;;;;;;5030392;28;20427;-36
2022/02/11 08:15:51;;;;;;;11.93;2.38;;;;;;;;;;5021737;28;20884;-36
2022/02/11 08:18:17;;;;;;;13.32;2.67;;;;;;;;;;5020887;28;20735;-36
2022/02/11 08:20:43;;;;;;;9.50;2.60;;;;;;;;;;5025371;28;20041;-36
2022/02/11 08:23:10;;;;;;;12.35;2.67;;;;;;;;;;5030015;28;20720;-35
2022/02/11 08:25:36;;;;;;;16.52;2.20;;;;;;;;;;5030407;28;20026;-36
2022/02/11 08:28:02;;;;;;;10.43;2.72;;;;;;;;;;5029784;28;20053;-35
2022/02/11 08:30:29;;;;;;;15.25;2.80;;;;;;;;;;5029972;28;20803;-36
2022/02/11 08:32:56;;;;;;;13.27;2.28;;;;;;;;;;5029455;28;20037;-35
2022/02/11 08:35:22;;;;;;;15.95;2.88;;;;;;;;;;5028269;28;20033;-35
2022/02/11 08:37:48;;;;;;;15.40;2.45;;;;;;;;;;5030069;28;20116;-35
2022/02/11 08:40:14;;;;;;;7.65;2.30;;;;;;;;;;5028989;28;20083;-36
2022/02/11 08:42:40;;;;;;;12.77;2.63;;;;;;;;;;5028308;28;20068;-36
2022/02/11 08:45:07;;;;;;;16.77;2.90;;;;;;;;;;5023638;28;20026;-36
2022/02/11 08:47:33;;;;;;;9.98;3.38;;;;;;;;;;5008889;28;20041;-35
2022/02/11 08:50:00;;;;;;;9.85;2.08;;;;;;;;;;5027965;28;20048;-37
2022/02/11 08:52:27;;;;;;;13.00;2.38;;;;;;;;;;5028521;28;20026;-35
2022/02/11 08:54:53;;;;;;;10.57;2.40;;;;;;;;;;5028023;28;20033;-35
2022/02/11 08:57:20;;;;;;;10.93;2.92;;;;;;;;;;5029648;28;20407;-35
2022/02/11 08:59:46;;;;;;;8.02;1.92;;;;;;;;;;5028746;28;20187;-36
2022/02/11 09:02:14;;;;;;;8.98;2.47;;;;;;;;;;5028015;28;20440;-37
2022/02/11 09:04:40;;;;;;;9.90;2.45;;;;;;;;;;5029396;28;20475;-36
2022/02/11 09:07:06;;;;;;;9.90;2.60;;;;;;;;;;5029507;28;20048;-36
2022/02/11 09:09:33;;;;;;;9.40;2.75;;;;;;;;;;5029958;28;20237;-35
2022/02/11 09:11:59;;;;;;;9.45;2.15;;;;;;;;;;5029444;28;20053;-36
2022/02/11 09:14:25;;;;;;;11.77;3.03;;;;;;;;;;5028363;28;20064;-37
2022/02/11 09:16:51;;;;;;;12.05;2.75;;;;;;;;;;5027739;28;20112;-35
2022/02/11 09:19:17;;;;;;;12.43;3.20;;;;;;;;;;5029500;28;20100;-35
2022/02/11 09:21:43;;;;;;;16.35;2.67;;;;;;;;;;5029357;28;20079;-36
2022/02/11 09:24:09;;;;;;;9.65;1.90;;;;;;;;;;5028310;28;20033;-36
2022/02/11 09:26:35;;;;;;;10.18;2.03;;;;;;;;;;5029036;28;20455;-36
2022/02/11 09:29:02;;;;;;;11.73;2.33;;;;;;;;;;5029220;28;20041;-36
2022/02/11 09:31:28;;;;;;;13.90;2.53;;;;;;;;;;5029335;28;20052;-36
2022/02/11 09:33:55;;;;;;;13.70;2.60;;;;;;;;;;5028940;28;20060;-37
2022/02/11 09:36:22;;;;;;;12.07;2.72;;;;;;;;;;5029287;28;20033;-36
2022/02/11 09:38:48;;;;;;;12.98;2.25;;;;;;;;;;5017594;28;20042;-37
2022/02/11 09:41:15;;;;;;;11.10;1.95;;;;;;;;;;5024613;28;20022;-36
2022/02/11 09:43:41;;;;;;;7.85;2.70;;;;;;;;;;5028725;28;20128;-36
2022/02/11 09:46:08;;;;;;;16.67;2.45;;;;;;;;;;5027436;28;20030;-36
2022/02/11 09:48:35;;;;;;;7.78;2.28;;;;;;;;;;5028548;28;20043;-35
2022/02/11 09:51:01;;;;;;;7.15;2.45;;;;;;;;;;5021192;28;20402;-36
2022/02/11 09:53:28;;;;;;;10.82;2.33;;;;;;;;;;5029023;28;20032;-37
2022/02/11 09:55:55;;;;;;;7.43;1.80;;;;;;;;;;5027796;28;20025;-36
2022/02/11 09:58:21;;;;;;;12.23;1.95;;;;;;;;;;5028365;28;20041;-35
2022/02/11 10:00:48;;;;;;;11.18;2.58;;;;;;;;;;5021133;28;20060;-36
2022/02/11 10:03:22;;;;;;;9.93;2.00;;;;;;;;;;5028778;28;20037;-35
2022/02/11 10:05:49;;;;;;;10.30;2.05;;;;;;;;;;5028050;28;20517;-35
2022/02/11 10:08:16;;;;;;;10.13;2.67;;;;;;;;;;5028186;28;20052;-35
2022/02/11 10:10:44;;;;;;;16.13;3.03;;;;;;;;;;5028298;28;20124;-40
2022/02/11 10:13:10;;;;;;;11.20;2.28;;;;;;;;;;5028138;28;20022;-36
2022/02/11 10:15:38;;;;;;;11.75;2.42;;;;;;;;;;5027660;28;20060;-37
2022/02/11 10:18:05;;;;;;;10.13;2.50;;;;;;;;;;5026131;28;20037;-36
2022/02/11 10:20:42;;;;;;;11.57;2.55;;;;;;;;;;5026570;28;20036;-37
2022/02/11 10:23:12;;;;;;;14.27;2.50;;;;;;;;;;5025612;28;20179;-37
2022/02/11 10:26:05;;;;;;;15.00;2.85;;;;;;;;;;5026429;28;20025;-36
2022/02/11 10:28:36;;;;;;;16.45;3.35;;;;;;;;;;5026192;28;20103;-35
2022/02/11 10:31:12;;;;;;;14.18;3.15;;;;;;;;;;5006804;28;20132;-35
2022/02/11 10:34:00;;;;;;;15.45;2.88;;;;;;;;;;5025936;28;20583;-35
2022/02/11 10:36:30;;;;;;;11.13;3.38;;;;;;;;;;5026350;28;20030;-34
2022/02/11 10:39:01;;;;;;;10.52;3.25;;;;;;;;;;5024486;28;20021;-35
2022/02/11 10:41:27;;;;;;;14.25;2.80;;;;;;;;;;5027781;28;20083;-35
2022/02/11 10:43:58;;;;;;;11.98;2.85;;;;;;;;;;5028271;28;20053;-35
2022/02/11 10:46:24;;;;;;;17.95;3.83;;;;;;;;;;5032489;28;20033;-35
2022/02/11 10:48:50;;;;;;;10.98;2.58;;;;;;;;;;5031517;28;20396;-35
2022/02/11 10:51:22;;;;;;;8.10;2.97;;;;;;;;;;5032083;28;20040;-35
2022/02/11 10:53:47;;;;;;;10.13;3.70;;;;;;;;;;5031837;28;20037;-35
2022/02/11 10:56:15;;;;;;;11.85;3.47;;;;;;;;;;5031650;28;20037;-36
2022/02/11 10:58:47;;;;;;;12.00;2.92;;;;;;;;;;5031257;28;20380;-35
2022/02/11 11:01:13;;;;;;;9.23;2.70;;;;;;;;;;5030585;28;20079;-35
2022/02/11 11:03:39;;;;;;;11.70;2.63;;;;;;;;;;5031625;28;20497;-35
2022/02/11 11:06:06;;;;;;;8.82;2.88;;;;;;;;;;5031196;28;20141;-36
2022/02/11 11:08:40;;;;;;;11.00;3.08;;;;;;;;;;5031558;28;20029;-36
2022/02/11 11:11:08;;;;;;;10.10;2.65;;;;;;;;;;5032067;28;20037;-35
2022/02/11 11:13:40;;;;;;;10.90;2.17;;;;;;;;;;5030634;28;20030;-36
2022/02/11 11:16:07;;;;;;;9.63;2.45;;;;;;;;;;5031319;28;20036;-35
2022/02/11 11:18:36;;;;;;;12.93;3.55;;;;;;;;;;5031174;28;20091;-35
2022/02/11 11:21:04;;;;;;;9.00;2.03;;;;;;;;;;5031222;28;20116;-35
2022/02/11 11:23:32;;;;;;;9.95;1.92;;;;;;;;;;5031255;28;20079;-35
2022/02/11 11:26:02;;;;;;;13.60;2.15;;;;;;;;;;5031451;28;20025;-35
2022/02/11 11:28:40;;;;;;;7.93;2.30;;;;;;;;;;5031334;28;20082;-35
2022/02/11 11:31:15;;;;;;;16.50;2.85;;;;;;;;;;5021073;28;20537;-35
2022/02/11 11:33:42;;;;;;;12.45;2.35;;;;;;;;;;5029997;28;20041;-35
2022/02/11 11:36:09;;;;;;;13.93;3.65;;;;;;;;;;5031309;28;20040;-35
2022/02/11 11:38:40;;;;;;;14.90;2.10;;;;;;;;;;5030767;28;20028;-36
2022/02/11 11:41:12;;;;;;;24.67;3.70;;;;;;;;;;5031280;28;20045;-35
2022/02/11 11:43:39;;;;;;;15.77;2.15;;;;;;;;;;5028057;28;20029;-35
2022/02/11 11:46:06;;;;;;;13.50;2.85;;;;;;;;;;5030600;28;20460;-36
2022/02/11 11:48:59;;;;;;;16.63;3.20;;;;;;;;;;5030496;28;20041;-35
2022/02/11 11:51:26;;;;;;;17.02;2.17;;;;;;;;;;4998095;28;20586;-36
2022/02/11 11:54:13;;;;;;;12.02;2.60;;;;;;;;;;5030240;28;20083;-36
2022/02/11 11:56:41;;;;;;;14.00;2.60;;;;;;;;;;5020485;28;20392;-37
2022/02/11 11:59:14;;;;;;;14.20;2.50;;;;;;;;;;5029782;28;20033;-36
2022/02/11 12:01:53;;;;;;;17.50;2.85;;;;;;;;;;5030421;28;20040;-37
2022/02/11 12:04:23;;;;;;;21.02;2.70;;;;;;;;;;5030673;28;20121;-35
2022/02/11 12:06:53;;;;;;;13.60;2.72;;;;;;;;;;5020984;28;20624;-36
2022/02/11 12:09:20;;;;;;;9.75;2.63;;;;;;;;;;5030226;28;20056;-38
2022/02/11 12:11:47;;;;;;;14.68;2.50;;;;;;;;;;5029761;28;20554;-38
2022/02/11 12:14:14;;;;;;;13.25;2.25;;;;;;;;;;5029232;28;20083;-36
2022/02/11 12:16:41;;;;;;;10.27;2.45;;;;;;;;;;5030548;28;20033;-36
2022/02/11 12:19:07;;;;;;;13.30;3.03;;;;;;;;;;5030683;28;20040;-37
2022/02/11 12:21:34;;;;;;;10.52;2.35;;;;;;;;;;5030749;28;20030;-36
2022/02/11 12:29:30;;;;;;;10.52;3.13;;;;;;;;;;5024739;28;20059;-37
2022/02/11 12:31:56;;;;;;;10.80;1.83;;;;;;;;;;5025656;28;20396;-37
2022/02/11 12:34:23;;;;;;;15.43;3.03;;;;;;;;;;5028400;28;20100;-37
2022/02/11 12:36:50;;;;;;;10.65;2.42;;;;;;;;;;5028913;28;20769;-36
2022/02/11 12:39:17;;;;;;;13.27;2.25;;;;;;;;;;5028383;28;20026;-36
2022/02/11 12:41:43;;;;;;;14.48;2.33;;;;;;;;;;5028721;28;20021;-37
2022/02/11 12:44:10;;;;;;;13.55;2.28;;;;;;;;;;5018944;28;20029;-37
2022/02/11 12:46:36;;;;;;;10.50;2.38;;;;;;;;;;5016977;28;20374;-37
2022/02/11 12:49:04;;;;;;;14.52;2.15;;;;;;;;;;5027990;28;20034;-36
2022/02/11 12:51:30;;;;;;;9.75;2.40;;;;;;;;;;5028562;28;20025;-36
2022/02/11 12:54:05;;;;;;;9.93;2.70;;;;;;;;;;5028693;28;20032;-36
2022/02/11 12:56:32;;;;;;;8.15;2.03;;;;;;;;;;5028863;28;20457;-36
2022/02/11 12:59:08;;;;;;;16.23;2.58;;;;;;;;;;5028344;28;20026;-37
2022/02/11 13:01:34;;;;;;;10.80;1.85;;;;;;;;;;5029213;28;20095;-35
2022/02/11 13:04:00;;;;;;;9.40;2.00;;;;;;;;;;5029219;28;20022;-38
2022/02/11 13:06:27;;;;;;;9.75;2.35;;;;;;;;;;5028881;28;20083;-36
2022/02/11 13:09:03;;;;;;;12.13;2.03;;;;;;;;;;5028487;28;20742;-36
2022/02/11 13:11:30;;;;;;;13.00;1.88;;;;;;;;;;5029002;28;20079;-36
2022/02/11 13:14:04;;;;;;;9.80;2.10;;;;;;;;;;5025013;28;20115;-37
2022/02/11 13:16:30;;;;;;;9.48;1.85;;;;;;;;;;5028880;28;20025;-37
2022/02/11 13:18:57;;;;;;;8.20;2.10;;;;;;;;;;5027874;28;20045;-37
2022/02/11 13:21:24;;;;;;;7.25;1.98;;;;;;;;;;5028850;28;20106;-35
2022/02/11 13:23:52;;;;;;;7.72;1.92;;;;;;;;;;5029019;28;20030;-35
2022/02/11 13:26:19;;;;;;;8.85;1.88;;;;;;;;;;5029002;28;20029;-35
2022/02/11 13:28:49;;;;;;;7.40;1.90;;;;;;;;;;5028401;28;20053;-35
2022/02/11 13:31:17;;;;;;;7.75;1.80;;;;;;;;;;5028481;28;20041;-35
2022/02/11 13:33:45;;;;;;;7.00;1.45;;;;;;;;;;5028899;28;20030;-35
2022/02/11 13:36:12;;;;;;;10.98;1.48;;;;;;;;;;5028812;28;20373;-35
2022/02/11 13:38:39;;;;;;;7.55;1.58;;;;;;;;;;5028859;28;20056;-34
2022/02/11 13:41:10;;;;;;;10.25;2.05;;;;;;;;;;5028619;28;20041;-35
2022/02/11 13:43:49;;;;;;;9.40;2.05;;;;;;;;;;5028476;28;20057;-35
2022/02/11 13:46:29;;;;;;;5.63;2.25;;;;;;;;;;5028344;28;20170;-35
2022/02/11 13:48:57;;;;;;;8.45;2.15;;;;;;;;;;5028233;28;20034;-35
2022/02/11 13:51:24;;;;;;;11.68;1.70;;;;;;;;;;5027501;28;20029;-35
2022/02/11 13:53:53;;;;;;;8.25;2.38;;;;;;;;;;5028967;28;20022;-35
2022/02/11 13:56:24;;;;;;;7.18;1.95;;;;;;;;;;5028956;28;20621;-35
2022/02/11 13:59:10;;;;;;;5.63;1.65;;;;;;;;;;5028324;28;20049;-35
2022/02/11 14:01:37;;;;;;;5.47;1.38;;;;;;;;;;5028934;28;20045;-35
2022/02/11 14:04:03;;;;;;;7.03;1.60;;;;;;;;;;5028504;28;20038;-35
2022/02/11 14:06:36;;;;;;;5.95;1.45;;;;;;;;;;5024324;28;20458;-35
2022/02/11 14:09:03;;;;;;;7.22;1.50;;;;;;;;;;5027921;28;20037;-35
2022/02/11 14:11:34;;;;;;;7.47;1.40;;;;;;;;;;5028642;28;20033;-36
2022/02/11 14:14:08;;;;;;;8.07;1.80;;;;;;;;;;5013574;28;20060;-35
2022/02/11 14:16:35;;;;;;;5.03;1.42;;;;;;;;;;5017245;28;20443;-35
2022/02/11 14:19:01;;;;;;;8.18;1.50;;;;;;;;;;5027810;28;20091;-36
2022/02/11 14:21:27;;;;;;;5.30;1.60;;;;;;;;;;5027981;28;20113;-35
2022/02/11 14:23:53;;;;;;;7.05;1.83;;;;;;;;;;5028261;28;20104;-35
2022/02/11 14:26:19;;;;;;;7.20;2.00;;;;;;;;;;5027333;28;20116;-36
2022/02/11 14:28:46;;;;;;;7.05;1.23;;;;;;;;;;5027768;28;20057;-35
2022/02/11 14:31:12;;;;;;;6.07;1.52;;;;;;;;;;5028194;28;20044;-35
2022/02/11 14:33:39;;;;;;;7.63;1.88;;;;;;;;;;5028320;28;20480;-35
2022/02/11 14:36:05;;;;;;;7.60;1.70;;;;;;;;;;5027548;28;20044;-35
2022/02/11 14:38:31;;;;;;;7.15;1.60;;;;;;;;;;5028239;28;20038;-35
2022/02/11 14:43:50;;;;;;;5.35;1.65;;;;;;;;;;5007251;28;20037;-35
2022/02/11 14:46:16;;;;;;;7.78;1.88;;;;;;;;;;5022129;28;20021;-34
2022/02/11 14:48:42;;;;;;;4.85;1.30;;;;;;;;;;5027502;28;20029;-34
2022/02/11 14:51:09;;;;;;;5.30;1.10;;;;;;;;;;5026910;28;20626;-34
2022/02/11 14:53:35;;;;;;;7.13;1.40;;;;;;;;;;5027815;28;20033;-34
2022/02/11 14:56:03;;;;;;;5.72;1.40;;;;;;;;;;5027534;28;20531;-35
2022/02/11 14:58:29;;;;;;;5.38;1.40;;;;;;;;;;5027873;28;20060;-34
2022/02/11 15:00:55;;;;;;;6.80;1.33;;;;;;;;;;5027897;28;20048;-35
2022/02/11 15:03:21;;;;;;;3.92;1.25;;;;;;;;;;5027808;28;20456;-35
2022/02/11 15:05:47;;;;;;;8.15;1.58;;;;;;;;;;5026984;28;20105;-34
2022/02/11 15:08:13;;;;;;;6.82;1.30;;;;;;;;;;5026288;28;20553;-35
2022/02/11 15:10:40;;;;;;;5.00;1.30;;;;;;;;;;5026268;28;20148;-33
2022/02/11 15:13:09;;;;;;;5.60;1.20;;;;;;;;;;5026625;28;20535;-36
2022/02/11 15:15:35;;;;;;;4.95;1.23;;;;;;;;;;5026764;28;20057;-34
2022/02/11 15:18:02;;;;;;;7.55;1.20;;;;;;;;;;5026481;28;20446;-35
2022/02/11 15:20:28;;;;;;;4.68;1.05;;;;;;;;;;5028152;28;20140;-35
2022/02/11 15:22:55;;;;;;;6.40;1.35;;;;;;;;;;5027102;28;20582;-35
2022/02/11 15:25:21;;;;;;;3.85;1.13;;;;;;;;;;5027127;28;20030;-34
2022/02/11 15:27:47;;;;;;;9.20;1.90;;;;;;;;;;5027256;28;20057;-35
2022/02/11 15:30:14;;;;;;;3.85;1.10;;;;;;;;;;5028033;28;20097;-35
2022/02/11 15:32:40;;;;;;;7.90;1.80;;;;;;;;;;5030390;28;20144;-35
2022/02/11 15:35:06;;;;;;;8.13;1.40;;;;;;;;;;5029667;28;20109;-35
2022/02/11 15:37:32;;;;;;;3.22;1.05;;;;;;;;;;5030374;28;20032;-35
2022/02/11 15:39:58;;;;;;;4.05;1.48;;;;;;;;;;5029522;28;20132;-35
2022/02/11 15:42:24;;;;;;;6.82;1.20;;;;;;;;;;5030999;28;20104;-35
2022/02/11 15:44:50;;;;;;;4.32;1.10;;;;;;;;;;5030574;28;20040;-35
2022/02/11 15:47:16;;;;;;;4.60;1.40;;;;;;;;;;5030743;28;20026;-35
2022/02/11 15:49:42;;;;;;;6.90;1.50;;;;;;;;;;5030291;28;20025;-35
2022/02/11 15:52:09;;;;;;;7.47;1.65;;;;;;;;;;5029480;28;20527;-35
2022/02/11 15:54:35;;;;;;;6.20;1.23;;;;;;;;;;5029568;28;20033;-34
2022/02/11 15:57:01;;;;;;;5.47;1.58;;;;;;;;;;5028526;28;20031;-35
2022/02/11 15:59:27;;;;;;;5.00;1.10;;;;;;;;;;5027044;28;20116;-34
2022/02/11 16:01:55;;;;;;;9.18;1.50;;;;;;;;;;5010411;28;20108;-34
2022/02/11 16:04:21;;;;;;;5.80;1.05;;;;;;;;;;5028384;28;20037;-34
2022/02/11 16:06:47;;;;;;;6.03;1.10;;;;;;;;;;5029991;28;20468;-35
2022/02/11 16:09:14;;;;;;;6.43;1.98;;;;;;;;;;5030222;28;20770;-33
2022/02/11 16:11:40;;;;;;;9.80;1.42;;;;;;;;;;5030193;28;20550;-33
2022/02/11 16:14:06;;;;;;;5.85;1.45;;;;;;;;;;5028927;28;20391;-34
2022/02/11 16:16:32;;;;;;;6.05;1.77;;;;;;;;;;5030229;28;20057;-33
2022/02/11 16:18:58;;;;;;;6.75;1.95;;;;;;;;;;5029080;28;20033;-35
2022/02/11 16:21:24;;;;;;;5.05;1.23;;;;;;;;;;5029772;28;20057;-35
2022/02/11 16:23:50;;;;;;;8.82;2.03;;;;;;;;;;5028890;28;20017;-35
2022/02/11 16:26:17;;;;;;;11.63;2.22;;;;;;;;;;5029064;28;20440;-34
2022/02/11 16:28:43;;;;;;;7.18;1.80;;;;;;;;;;5028404;28;20495;-35
2022/02/11 16:31:17;;;;;;;7.90;2.15;;;;;;;;;;5029483;28;20044;-35
2022/02/11 16:33:43;;;;;;;5.63;1.58;;;;;;;;;;5029895;28;20025;-35
2022/02/11 16:36:09;;;;;;;6.72;1.25;;;;;;;;;;5029510;28;20029;-34
2022/02/11 16:38:37;;;;;;;5.97;1.48;;;;;;;;;;5028999;28;20079;-35
2022/02/11 16:41:03;;;;;;;6.30;1.90;;;;;;;;;;5023809;28;20120;-34
2022/02/11 16:43:30;;;;;;;9.02;1.30;;;;;;;;;;5029568;28;20091;-33
2022/02/11 16:45:56;;;;;;;6.10;1.30;;;;;;;;;;5028364;28;20503;-34
2022/02/11 16:48:22;;;;;;;8.75;2.33;;;;;;;;;;5029179;28;20103;-35
2022/02/11 16:50:48;;;;;;;7.35;1.17;;;;;;;;;;5029168;28;20029;-34
2022/02/11 16:53:15;;;;;;;4.57;1.27;;;;;;;;;;5028350;28;20475;-34
2022/02/11 16:55:41;;;;;;;9.65;2.08;;;;;;;;;;5026579;28;20033;-34
2022/02/11 16:58:07;;;;;;;8.30;2.00;;;;;;;;;;5028856;28;20021;-34
2022/02/11 17:00:33;;;;;;;6.95;2.05;;;;;;;;;;5028352;28;20083;-33
2022/02/11 17:02:59;;;;;;;4.15;1.40;;;;;;;;;;5028565;28;20029;-33
2022/02/11 17:05:27;;;;;;;6.80;1.60;;;;;;;;;;5028060;28;20029;-33
2022/02/11 17:07:53;;;;;;;7.50;1.50;;;;;;;;;;5028031;28;20090;-32
2022/02/11 17:10:19;;;;;;;7.10;1.63;;;;;;;;;;5026613;28;20034;-33
2022/02/11 17:12:45;;;;;;;5.80;1.48;;;;;;;;;;5028330;28;20195;-33
2022/02/11 17:15:12;;;;;;;6.75;1.63;;;;;;;;;;5029093;28;20021;-33
2022/02/11 17:17:38;;;;;;;4.25;1.30;;;;;;;;;;5029343;28;20463;-34
2022/02/11 17:20:06;;;;;;;8.00;2.20;;;;;;;;;;5029005;28;20088;-33
2022/02/11 17:22:32;;;;;;;4.88;0.95;;;;;;;;;;5029125;28;20114;-33
2022/02/11 17:24:59;;;;;;;7.00;1.48;;;;;;;;;;5027899;28;20544;-33
2022/02/11 17:27:25;;;;;;;5.80;1.42;;;;;;;;;;5028927;28;20164;-33
2022/02/11 17:29:51;;;;;;;6.30;1.45;;;;;;;;;;5028856;28;20036;-33
2022/02/11 17:32:17;;;;;;;6.55;1.42;;;;;;;;;;5028852;28;20104;-33
2022/02/11 17:34:44;;;;;;;5.15;1.50;;;;;;;;;;5029140;28;20105;-33
2022/02/11 17:37:10;;;;;;;7.13;1.60;;;;;;;;;;5026902;28;20048;-34
2022/02/11 17:39:37;;;;;;;5.72;1.40;;;;;;;;;;5028880;28;20396;-34
2022/02/11 17:42:04;;;;;;;8.13;1.77;;;;;;;;;;5028407;28;20025;-34
2022/02/11 17:44:30;;;;;;;8.73;1.92;;;;;;;;;;5028713;28;20033;-33
2022/02/11 17:46:56;;;;;;;4.32;1.40;;;;;;;;;;5025000;28;20022;-33
2022/02/11 17:49:23;;;;;;;5.18;1.55;;;;;;;;;;5028971;28;20481;-33
2022/02/11 17:51:49;;;;;;;5.65;1.38;;;;;;;;;;5028556;28;20017;-32
2022/02/11 17:54:16;;;;;;;5.90;1.35;;;;;;;;;;5027870;28;20107;-33
2022/02/11 17:56:42;;;;;;;6.07;1.58;;;;;;;;;;5027872;28;20072;-34
2022/02/11 17:59:09;;;;;;;5.28;1.58;;;;;;;;;;5028192;28;20347;-34
2022/02/11 18:01:35;;;;;;;10.60;1.63;;;;;;;;;;5028015;28;20029;-33
2022/02/11 18:04:01;;;;;;;7.32;1.30;;;;;;;;;;5028371;28;20105;-33
2022/02/11 18:06:27;;;;;;;7.00;1.85;;;;;;;;;;5028590;28;20065;-33
2022/02/11 18:08:53;;;;;;;7.85;1.92;;;;;;;;;;5028300;28;20040;-33
2022/02/11 18:11:19;;;;;;;4.95;1.50;;;;;;;;;;5028434;28;20099;-33